Time;durP1;ratioP1;P1;durP2;ratioP2;P2;SDS_P1;SDS_P2;PMS_P1;PMS_P2;Temp;Humidity;BMP_temperature;BMP_pressure;BME280_temperature;BME280_humidity;BME280_pressure;Samples;Min_cycle;Max_cycle;Signal;HPM_P1;HPM_P2
2023/04/04 00:01:52;;;;;;;2.10;1.00;;;11.80;76.20;;;;;;4936084;29;20014;-80
2023/04/04 00:04:17;;;;;;;1.83;1.10;;;12.00;76.40;;;;;;4938035;29;20095;-80
2023/04/04 00:06:44;;;;;;;2.95;1.42;;;11.90;76.30;;;;;;4925485;29;20485;-78
2023/04/04 00:09:11;;;;;;;2.20;1.20;;;11.90;76.30;;;;;;4931505;29;20523;-81
2023/04/04 00:11:37;;;;;;;3.10;1.25;;;11.90;76.30;;;;;;4932912;29;20039;-79
2023/04/04 00:14:04;;;;;;;2.03;1.08;;;11.90;76.30;;;;;;4937766;29;20035;-79
2023/04/04 00:16:29;;;;;;;2.35;1.23;;;11.80;76.20;;;;;;4934105;29;20031;-80
2023/04/04 00:18:55;;;;;;;2.25;1.10;;;11.90;76.30;;;;;;4933640;29;20034;-81
2023/04/04 00:21:22;;;;;;;2.58;1.30;;;11.90;76.30;;;;;;4952335;29;20058;-81
2023/04/04 00:23:48;;;;;;;2.08;1.20;;;11.90;76.30;;;;;;4935028;29;20129;-79
2023/04/04 00:26:13;;;;;;;2.13;1.10;;;11.90;76.30;;;;;;4933229;29;20590;-80
2023/04/04 00:28:39;;;;;;;2.45;1.13;;;11.90;76.30;;;;;;4932384;29;20020;-80
2023/04/04 00:31:05;;;;;;;2.35;1.10;;;11.90;76.40;;;;;;4931815;29;20031;-80
2023/04/04 00:33:30;;;;;;;2.33;1.20;;;11.90;76.40;;;;;;4932201;29;20448;-80
2023/04/04 00:35:56;;;;;;;3.10;1.25;;;11.90;76.40;;;;;;4931998;29;20032;-80
2023/04/04 00:38:21;;;;;;;2.00;1.17;;;11.90;76.40;;;;;;4930846;29;20529;-81
2023/04/04 00:40:49;;;;;;;1.92;1.00;;;11.90;76.40;;;;;;4930575;29;20032;-80
2023/04/04 00:43:15;;;;;;;2.92;1.50;;;11.90;76.30;;;;;;4930064;29;20127;-80
2023/04/04 00:45:42;;;;;;;2.63;1.20;;;11.90;76.30;;;;;;4929519;29;20042;-80
2023/04/04 00:48:07;;;;;;;2.70;1.17;;;11.90;76.40;;;;;;4947968;29;20028;-80
2023/04/04 00:50:33;;;;;;;2.90;1.40;;;11.90;76.40;;;;;;4929976;29;20035;-81
2023/04/04 00:52:58;;;;;;;3.67;1.35;;;11.90;76.30;;;;;;4936295;29;20048;-82
2023/04/04 00:55:25;;;;;;;3.30;1.50;;;11.80;76.30;;;;;;4935070;29;20522;-82
2023/04/04 00:57:51;;;;;;;2.72;1.30;;;11.90;76.50;;;;;;4935172;29;20505;-79
2023/04/04 01:00:16;;;;;;;3.33;1.35;;;11.90;76.40;;;;;;4934511;29;20087;-80
2023/04/04 01:02:42;;;;;;;2.90;1.30;;;11.90;76.50;;;;;;4934602;29;20038;-80
2023/04/04 01:05:08;;;;;;;4.13;1.30;;;11.90;76.50;;;;;;4934184;29;20031;-81
2023/04/04 01:07:35;;;;;;;2.88;1.35;;;11.90;76.50;;;;;;4934304;29;20559;-81
2023/04/04 01:10:02;;;;;;;2.65;1.20;;;11.80;76.40;;;;;;4933469;29;20028;-79
2023/04/04 01:12:28;;;;;;;2.67;1.20;;;11.90;76.50;;;;;;4931845;29;20488;-81
2023/04/04 01:14:54;;;;;;;2.50;1.20;;;11.90;76.50;;;;;;4933395;29;20060;-80
2023/04/04 01:17:20;;;;;;;3.00;1.35;;;11.80;76.50;;;;;;4950831;29;20038;-80
2023/04/04 01:19:55;;;;;;;3.72;1.58;;;11.80;76.50;;;;;;4932304;29;20042;-80
2023/04/04 01:22:22;;;;;;;3.03;1.40;;;11.90;76.50;;;;;;4932114;29;20023;-80
2023/04/04 01:24:48;;;;;;;2.78;1.20;;;11.80;76.40;;;;;;4931582;29;20047;-81
2023/04/04 01:27:13;;;;;;;3.75;1.50;;;11.80;76.50;;;;;;4931071;29;20015;-80
2023/04/04 01:29:39;;;;;;;2.58;1.40;;;11.80;76.40;;;;;;4919479;29;20071;-80
2023/04/04 01:32:28;;;;;;;4.25;1.77;;;11.80;76.40;;;;;;4921369;29;20060;-80
2023/04/04 01:35:20;;;;;;;3.88;1.58;;;11.80;76.40;;;;;;4916947;29;20048;-80
2023/04/04 01:38:01;;;;;;;2.90;1.30;;;11.80;76.40;;;;;;4929351;29;20030;-80
2023/04/04 01:40:36;;;;;;;3.05;1.38;;;11.90;76.40;;;;;;4929212;29;20094;-81
2023/04/04 01:43:02;;;;;;;2.85;1.60;;;11.80;76.40;;;;;;4929017;29;20019;-80
2023/04/04 01:45:28;;;;;;;3.05;1.50;;;11.80;76.40;;;;;;4949128;23;20103;-81
2023/04/04 01:47:54;;;;;;;3.10;1.58;;;11.80;76.40;;;;;;4938516;29;20118;-80
2023/04/04 01:50:19;;;;;;;2.92;1.48;;;11.80;76.40;;;;;;4938488;29;20118;-81
2023/04/04 01:52:46;;;;;;;3.75;1.50;;;11.80;76.40;;;;;;4938534;29;20114;-81
2023/04/04 01:55:11;;;;;;;3.45;1.45;;;11.80;76.30;;;;;;4938436;29;20604;-81
2023/04/04 01:57:37;;;;;;;3.00;1.50;;;11.80;76.40;;;;;;4957298;28;20126;-81
2023/04/04 02:00:04;;;;;;;3.08;1.50;;;11.80;76.40;;;;;;4957321;28;20495;-82
2023/04/04 02:02:29;;;;;;;3.92;1.88;;;11.80;76.50;;;;;;4957354;28;20109;-81
2023/04/04 02:04:55;;;;;;;2.72;1.50;;;11.80;76.50;;;;;;4957091;28;20023;-80
2023/04/04 02:07:20;;;;;;;3.88;1.60;;;11.80;76.50;;;;;;4957227;28;20027;-81
2023/04/04 02:09:46;;;;;;;4.53;1.80;;;11.80;76.40;;;;;;4957654;28;20547;-81
2023/04/04 02:12:11;;;;;;;2.90;1.40;;;11.80;76.30;;;;;;4954969;28;20033;-81
2023/04/04 02:14:37;;;;;;;3.40;1.60;;;11.80;76.40;;;;;;4957238;28;20122;-81
2023/04/04 02:17:02;;;;;;;4.28;1.70;;;11.80;76.40;;;;;;4957159;28;20023;-81
2023/04/04 02:19:28;;;;;;;4.47;1.50;;;11.80;76.30;;;;;;4975247;28;20030;-81
2023/04/04 02:21:55;;;;;;;2.80;1.40;;;11.80;76.40;;;;;;4974090;28;20074;-81
2023/04/04 02:24:20;;;;;;;3.55;1.63;;;11.80;76.90;;;;;;4957517;28;20022;-81
2023/04/04 02:26:47;;;;;;;3.65;1.60;;;11.80;76.30;;;;;;4957284;28;20026;-81
2023/04/04 02:29:12;;;;;;;3.78;1.80;;;11.80;76.30;;;;;;4974302;28;20019;-80
2023/04/04 02:31:38;;;;;;;3.25;1.60;;;11.80;76.30;;;;;;4974574;28;20027;-81
2023/04/04 02:34:03;;;;;;;2.80;1.30;;;11.80;76.40;;;;;;4957213;28;20026;-81
2023/04/04 02:36:29;;;;;;;3.20;1.58;;;11.80;76.40;;;;;;4974636;28;20039;-80
2023/04/04 02:38:54;;;;;;;4.10;1.45;;;11.80;76.40;;;;;;4956872;28;20019;-81
2023/04/04 02:41:20;;;;;;;3.20;1.50;;;11.80;76.40;;;;;;4973904;28;20073;-81
2023/04/04 02:43:45;;;;;;;2.60;1.40;;;11.80;76.40;;;;;;4957134;28;20023;-81
2023/04/04 02:46:11;;;;;;;3.33;1.60;;;11.80;76.40;;;;;;4974386;28;20058;-81
2023/04/04 02:48:36;;;;;;;3.25;1.45;;;11.70;76.70;;;;;;4957094;28;20019;-81
2023/04/04 02:51:02;;;;;;;3.35;1.50;;;11.80;76.40;;;;;;4956724;28;20030;-81
2023/04/04 02:53:27;;;;;;;3.35;1.58;;;11.80;76.30;;;;;;4957135;28;20373;-81
2023/04/04 02:55:53;;;;;;;2.85;1.50;;;11.80;76.30;;;;;;4956797;28;20022;-81
2023/04/04 02:58:19;;;;;;;2.83;1.40;;;11.70;76.30;;;;;;4957110;28;20113;-81
2023/04/04 03:00:47;;;;;;;3.28;1.52;;;11.70;76.30;;;;;;4957003;28;20023;-81
2023/04/04 03:03:13;;;;;;;2.53;1.27;;;11.70;76.20;;;;;;4957071;28;20046;-80
2023/04/04 03:05:38;;;;;;;2.85;1.35;;;11.70;76.20;;;;;;4956693;28;20026;-81
2023/04/04 03:08:04;;;;;;;2.83;1.40;;;11.70;76.20;;;;;;4957017;28;20026;-81
2023/04/04 03:10:29;;;;;;;2.60;1.33;;;11.70;76.20;;;;;;4956768;28;20029;-81
2023/04/04 03:12:56;;;;;;;3.17;1.60;;;11.70;76.20;;;;;;4956755;28;20033;-81
2023/04/04 03:15:21;;;;;;;3.22;1.42;;;11.70;76.20;;;;;;4957094;28;20031;-81
2023/04/04 03:17:47;;;;;;;3.90;1.58;;;11.70;76.20;;;;;;4973988;28;20082;-80
2023/04/04 03:20:16;;;;;;;3.63;1.50;;;11.70;76.20;;;;;;4956718;28;20030;-82
2023/04/04 03:22:41;;;;;;;2.65;1.25;;;11.70;76.20;;;;;;4953966;28;20026;-82
2023/04/04 03:25:08;;;;;;;2.78;1.27;;;11.70;76.20;;;;;;4956330;28;20027;-79
2023/04/04 03:27:33;;;;;;;2.53;1.30;;;11.70;76.80;;;;;;4956259;28;20399;-81
2023/04/04 03:29:59;;;;;;;3.08;1.50;;;11.70;76.20;;;;;;4972944;28;20034;-79
2023/04/04 03:32:25;;;;;;;3.30;1.50;;;11.70;76.20;;;;;;4974328;28;20062;-82
2023/04/04 03:34:53;;;;;;;2.50;1.40;;;11.80;76.20;;;;;;4956955;28;20081;-82
2023/04/04 03:37:19;;;;;;;3.05;1.58;;;11.70;76.10;;;;;;4972522;28;20098;-82
2023/04/04 03:40:16;;;;;;;3.47;1.40;;;11.70;76.20;;;;;;4979684;28;20041;-82
2023/04/04 03:43:01;;;;;;;2.53;1.42;;;11.70;76.20;;;;;;4979645;28;20030;-82
2023/04/04 03:49:13;;;;;;;2.35;1.20;;;11.70;76.00;;;;;;4970062;28;20031;-82
2023/04/04 03:52:02;;;;;;;2.60;1.23;;;11.50;76.00;;;;;;4959396;28;20426;-83
2023/04/04 03:54:28;;;;;;;2.47;1.10;;;11.70;76.10;;;;;;4959310;28;20038;-79
2023/04/04 04:04:09;;;;;;;3.55;1.58;;;11.70;76.10;;;;;;4841568;29;20149;-83
2023/04/04 05:19:37;;;;;;;3.05;1.50;;;11.60;75.60;;;;;;4942403;29;20062;-79
2023/04/04 05:22:06;;;;;;;3.10;1.40;;;11.50;75.40;;;;;;4938383;28;20039;-81
2023/04/04 05:24:32;;;;;;;3.10;1.40;;;11.60;75.60;;;;;;4938319;29;20240;-81
2023/04/04 05:27:33;;;;;;;2.67;1.30;;;11.60;75.50;;;;;;4934584;29;20024;-82
2023/04/04 05:35:09;;;;;;;3.45;1.42;;;11.60;75.50;;;;;;5005867;23;20055;-81
2023/04/04 05:38:00;;;;;;;5.22;1.35;;;11.70;75.00;;;;;;4959573;28;20035;-81
2023/04/04 05:40:32;;;;;;;3.35;1.50;;;11.60;74.40;;;;;;4937373;29;20129;-81
2023/04/04 05:44:02;;;;;;;3.58;1.30;;;11.70;74.50;;;;;;4907815;29;20501;-82
2023/04/04 05:46:51;;;;;;;2.80;1.30;;;11.60;74.30;;;;;;4951167;23;20035;-81
2023/04/04 05:49:18;;;;;;;3.67;1.55;;;11.60;74.60;;;;;;4962336;28;20015;-81
2023/04/04 05:51:49;;;;;;;3.50;1.85;;;11.70;74.60;;;;;;4975060;28;20011;-81
2023/04/04 05:54:32;;;;;;;4.17;1.43;;;11.60;74.60;;;;;;4961884;28;20047;-82
2023/04/04 06:01:08;;;;;;;3.63;1.40;;;11.80;74.60;;;;;;4979032;28;20495;-81
2023/04/04 06:03:43;;;;;;;2.60;1.40;;;11.60;74.40;;;;;;4962525;28;20018;-82
2023/04/04 06:06:23;;;;;;;3.03;1.40;;;11.70;74.60;;;;;;4978231;28;20027;-82
2023/04/04 06:09:05;;;;;;;4.57;1.63;;;11.70;74.60;;;;;;4959675;28;20061;-82
2023/04/04 06:18:38;;;;;;;4.32;1.30;;;11.80;74.70;;;;;;4864080;29;20017;-82
2023/04/04 06:21:45;;;;;;;2.92;1.33;;;11.80;74.60;;;;;;4848224;29;20551;-81
2023/04/04 06:24:32;;;;;;;3.97;1.60;;;12.00;74.70;;;;;;4864660;29;20424;-82
2023/04/04 06:29:45;;;;;;;3.80;1.60;;;11.80;74.70;;;;;;5847281;23;20063;-81
2023/04/04 06:32:15;;;;;;;3.75;1.40;;;11.90;74.70;;;;;;4978505;28;20015;-82
2023/04/04 06:34:47;;;;;;;3.85;1.35;;;12.00;74.80;;;;;;4962277;28;20015;-82
2023/04/04 06:40:04;;;;;;;2.03;1.20;;;12.00;74.60;;;;;;5219226;23;20056;-82
2023/04/04 06:42:34;;;;;;;3.60;1.40;;;11.90;74.50;;;;;;4942409;28;20035;-82
2023/04/04 06:45:24;;;;;;;2.55;1.20;;;12.00;74.50;;;;;;4942782;28;20019;-82
2023/04/04 06:48:40;;;;;;;3.47;1.55;;;12.10;74.40;;;;;;4957045;28;20043;-81
2023/04/04 06:51:29;;;;;;;3.13;1.20;;;12.00;74.20;;;;;;4928044;28;20059;-81
2023/04/04 07:05:16;;;;;;;2.22;1.27;;;12.30;73.80;;;;;;4956936;29;20445;-80
2023/04/04 07:07:45;;;;;;;4.07;1.50;;;12.30;73.80;;;;;;4909635;29;20064;-80
2023/04/04 07:10:33;;;;;;;3.35;1.33;;;12.40;73.80;;;;;;4930750;29;20087;-80
2023/04/04 07:16:44;;;;;;;2.85;1.50;;;12.40;73.70;;;;;;4943347;29;20052;-81
2023/04/04 07:23:05;;;;;;;2.00;1.23;;;12.50;73.60;;;;;;4885521;29;20028;-82
2023/04/04 07:47:27;;;;;;;3.85;1.45;;;12.70;74.30;;;;;;5282636;23;20063;-86
2023/04/04 07:49:52;;;;;;;3.90;1.70;;;12.80;73.50;;;;;;4945852;29;20063;-87
2023/04/04 07:52:17;;;;;;;3.08;1.33;;;12.80;73.50;;;;;;4944497;29;20023;-87
2023/04/04 07:54:43;;;;;;;3.63;1.63;;;14.60;74.80;;;;;;4944425;29;20389;-87
2023/04/04 07:57:08;;;;;;;2.85;1.40;;;12.80;73.50;;;;;;4925082;29;20027;-87
2023/04/04 07:59:37;;;;;;;3.00;1.38;;;12.90;73.40;;;;;;4940519;29;20028;-88
2023/04/04 08:02:02;;;;;;;3.33;1.50;;;12.90;73.60;;;;;;4940430;29;20035;-87
2023/04/04 08:04:28;;;;;;;3.03;1.70;;;12.90;73.30;;;;;;4940251;29;20379;-89
2023/04/04 08:06:53;;;;;;;4.20;1.60;;;13.00;73.10;;;;;;4940636;29;20043;-87
2023/04/04 08:09:19;;;;;;;3.28;1.48;;;12.90;73.00;;;;;;4940384;29;20122;-87
2023/04/04 08:11:44;;;;;;;3.40;1.63;;;13.00;73.40;;;;;;4940219;29;20038;-88
2023/04/04 08:14:10;;;;;;;3.17;1.55;;;12.80;73.30;;;;;;4940176;29;20027;-88
2023/04/04 08:16:37;;;;;;;2.38;1.38;;;13.00;73.40;;;;;;4939559;29;20032;-88
2023/04/04 08:19:03;;;;;;;3.28;1.52;;;13.00;73.50;;;;;;4938370;29;20032;-87
2023/04/04 08:21:29;;;;;;;4.20;1.58;;;13.00;73.20;;;;;;4939588;29;20035;-88
2023/04/04 08:23:55;;;;;;;2.83;1.50;;;13.10;73.60;;;;;;4939781;29;20023;-87
2023/04/04 08:26:20;;;;;;;2.92;1.60;;;13.10;73.40;;;;;;4939408;29;20511;-88
2023/04/04 08:28:46;;;;;;;2.70;1.50;;;13.10;73.10;;;;;;4939801;29;20366;-88
2023/04/04 08:31:12;;;;;;;4.05;1.50;;;13.10;73.00;;;;;;4939434;29;20031;-88
2023/04/04 08:33:38;;;;;;;3.13;1.48;;;13.10;73.00;;;;;;4939071;29;20047;-87
2023/04/04 08:36:04;;;;;;;3.50;1.40;;;13.20;72.90;;;;;;4938913;29;20031;-88
2023/04/04 08:38:29;;;;;;;3.53;1.80;;;13.20;72.90;;;;;;4939061;29;20504;-87
2023/04/04 08:40:57;;;;;;;2.85;1.50;;;13.20;72.70;;;;;;4938678;29;20036;-88
2023/04/04 08:43:23;;;;;;;2.05;1.20;;;13.20;72.70;;;;;;4939106;29;20032;-87
2023/04/04 08:45:50;;;;;;;3.58;1.55;;;13.20;72.70;;;;;;4938779;29;20075;-88
2023/04/04 08:48:17;;;;;;;3.47;1.50;;;13.30;72.70;;;;;;4938662;29;20062;-87
2023/04/04 08:50:43;;;;;;;2.80;1.63;;;13.30;72.60;;;;;;4938427;29;20035;-87
2023/04/04 08:53:10;;;;;;;3.53;1.48;;;13.30;72.70;;;;;;4938258;29;20083;-88
2023/04/04 08:55:37;;;;;;;3.08;1.50;;;13.40;72.70;;;;;;4938360;29;20024;-88
2023/04/04 08:58:03;;;;;;;3.13;1.50;;;13.40;72.40;;;;;;4938534;29;20066;-87
2023/04/04 09:00:29;;;;;;;2.45;1.25;;;13.40;72.50;;;;;;4937545;29;20036;-88
2023/04/04 09:03:31;;;;;;;2.75;1.58;;;13.40;72.20;;;;;;4938018;29;20464;-87
2023/04/04 09:05:57;;;;;;;2.83;1.50;;;13.40;72.50;;;;;;4891376;29;20039;-88
2023/04/04 09:08:23;;;;;;;3.17;1.60;;;13.40;72.10;;;;;;4937539;29;20050;-88
2023/04/04 09:10:51;;;;;;;2.42;1.45;;;13.40;72.10;;;;;;4937799;29;20511;-88
2023/04/04 09:13:16;;;;;;;3.03;1.70;;;13.40;72.50;;;;;;4937318;29;20038;-87
2023/04/04 09:15:51;;;;;;;3.05;1.58;;;13.50;72.80;;;;;;4937182;29;20040;-88
2023/04/04 09:18:17;;;;;;;2.80;1.48;;;13.50;72.30;;;;;;4937551;29;20035;-88
2023/04/04 09:20:45;;;;;;;2.80;1.40;;;13.40;72.70;;;;;;4937275;29;20035;-88
2023/04/04 09:23:17;;;;;;;3.80;1.77;;;13.40;72.40;;;;;;4937313;29;20032;-87
2023/04/04 09:25:49;;;;;;;;;;;13.40;72.10;;;;;;4938018;29;20027;-87
2023/04/04 09:28:16;;;;;;;2.45;1.30;;;13.40;72.20;;;;;;4937538;29;19906;-87
2023/04/04 09:30:43;;;;;;;3.55;1.60;;;13.40;72.00;;;;;;4937299;29;20032;-87
2023/04/04 09:33:11;;;;;;;2.83;1.52;;;13.40;72.30;;;;;;4937365;29;20111;-88
2023/04/04 09:35:40;;;;;;;3.17;1.45;;;13.40;73.00;;;;;;4937816;29;20032;-87
2023/04/04 09:38:06;;;;;;;2.42;1.40;;;13.30;72.80;;;;;;4937818;29;20043;-87
2023/04/04 09:40:34;;;;;;;3.00;1.58;;;13.30;72.60;;;;;;4937755;29;20507;-87
2023/04/04 09:43:01;;;;;;;3.25;1.35;;;13.30;72.90;;;;;;4937482;29;20019;-89
2023/04/04 09:45:29;;;;;;;1.70;1.20;;;13.30;73.00;;;;;;4937976;29;20039;-88
2023/04/04 09:47:55;;;;;;;3.13;1.58;;;13.30;73.00;;;;;;4937081;29;20500;-87
2023/04/04 09:50:22;;;;;;;3.35;1.55;;;13.40;72.60;;;;;;4937677;29;20445;-88
2023/04/04 09:52:49;;;;;;;2.88;1.48;;;13.40;72.60;;;;;;4936805;29;20519;-87
2023/04/04 09:55:15;;;;;;;2.10;1.40;;;13.40;72.70;;;;;;4937303;29;20055;-88
2023/04/04 09:57:41;;;;;;;3.17;1.45;;;13.50;73.00;;;;;;4938277;29;20108;-88
2023/04/04 10:00:08;;;;;;;3.38;1.50;;;13.40;72.70;;;;;;4938354;29;20059;-86
2023/04/04 10:02:37;;;;;;;3.22;1.50;;;13.50;73.00;;;;;;4936892;29;20027;-88
2023/04/04 10:05:03;;;;;;;2.78;1.40;;;13.50;72.80;;;;;;4937195;29;20094;-88
2023/04/04 10:07:30;;;;;;;2.72;1.50;;;13.50;72.90;;;;;;4938556;29;20489;-87
2023/04/04 10:09:56;;;;;;;3.25;1.67;;;13.50;72.70;;;;;;4937000;29;20114;-87
2023/04/04 10:12:23;;;;;;;2.58;1.52;;;13.50;72.80;;;;;;4936843;29;20515;-88
2023/04/04 10:15:00;;;;;;;2.55;1.30;;;13.50;73.00;;;;;;4936746;29;20032;-87
2023/04/04 10:17:40;;;;;;;3.20;1.60;;;13.50;72.80;;;;;;4936252;29;20027;-87
2023/04/04 10:20:10;;;;;;;2.70;1.33;;;13.50;73.00;;;;;;4937033;29;20511;-86
2023/04/04 10:22:37;;;;;;;3.28;1.50;;;13.50;73.40;;;;;;4938066;29;20028;-87
2023/04/04 10:25:04;;;;;;;2.60;1.30;;;13.60;73.20;;;;;;4937364;29;20031;-88
2023/04/04 10:27:31;;;;;;;3.05;1.52;;;13.50;72.90;;;;;;4936621;29;20031;-88
2023/04/04 10:29:56;;;;;;;2.83;1.50;;;13.60;73.00;;;;;;4936693;29;20028;-88
2023/04/04 10:32:44;;;;;;;2.40;1.33;;;13.50;73.90;;;;;;4937529;29;20110;-88
2023/04/04 10:35:11;;;;;;;2.60;1.30;;;13.60;73.60;;;;;;4936945;29;20016;-87
2023/04/04 10:37:49;;;;;;;2.65;1.30;;;13.60;73.90;;;;;;4936517;29;20024;-88
2023/04/04 10:40:16;;;;;;;2.92;1.48;;;13.60;73.80;;;;;;4936471;29;20031;-87
2023/04/04 10:42:45;;;;;;;2.42;1.40;;;13.60;73.40;;;;;;4937677;29;20028;-88
2023/04/04 10:45:13;;;;;;;3.15;1.48;;;13.60;73.40;;;;;;4940627;29;20035;-87
2023/04/04 10:47:40;;;;;;;2.58;1.30;;;13.60;73.10;;;;;;4941707;29;20055;-88
2023/04/04 10:50:09;;;;;;;2.50;1.30;;;13.60;74.10;;;;;;4939960;29;20476;-84
2023/04/04 10:52:36;;;;;;;3.58;1.55;;;13.60;74.40;;;;;;4940044;29;20087;-88
2023/04/04 10:55:05;;;;;;;2.45;1.20;;;13.60;73.50;;;;;;4940598;29;20374;-87
2023/04/04 10:57:32;;;;;;;2.63;1.40;;;13.60;72.90;;;;;;4940183;29;20417;-87
2023/04/04 11:00:09;;;;;;;2.28;1.17;;;13.60;73.20;;;;;;4939481;29;20024;-88
2023/04/04 11:02:46;;;;;;;3.00;1.33;;;13.60;73.20;;;;;;4939913;29;20620;-88
2023/04/04 11:05:33;;;;;;;2.38;1.15;;;13.60;73.20;;;;;;4939967;29;20035;-87
2023/04/04 11:08:01;;;;;;;2.28;1.20;;;13.60;73.70;;;;;;4940430;29;20090;-88
2023/04/04 11:10:34;;;;;;;2.13;1.17;;;13.60;73.40;;;;;;4939776;29;20031;-87
2023/04/04 11:13:07;;;;;;;2.30;1.13;;;13.60;73.20;;;;;;4939590;29;20038;-88
2023/04/04 11:15:55;;;;;;;2.85;1.33;;;13.60;73.80;;;;;;4939661;29;20071;-88
2023/04/04 11:18:42;;;;;;;2.95;1.40;;;13.60;73.60;;;;;;4939558;29;20091;-87
2023/04/04 11:21:19;;;;;;;2.22;1.30;;;13.60;73.70;;;;;;4938917;29;20032;-88
2023/04/04 11:23:47;;;;;;;2.58;1.40;;;13.70;73.60;;;;;;4939691;29;20126;-88
2023/04/04 11:26:26;;;;;;;3.50;1.38;;;13.70;73.10;;;;;;4939149;29;20396;-88
2023/04/04 11:28:55;;;;;;;2.72;1.20;;;13.60;73.10;;;;;;4939243;29;20047;-88
2023/04/04 11:31:24;;;;;;;2.30;1.25;;;13.70;73.20;;;;;;4938379;29;20036;-88
2023/04/04 11:34:03;;;;;;;2.67;1.30;;;13.70;72.90;;;;;;4939025;29;20028;-88
2023/04/04 11:36:35;;;;;;;1.92;1.10;;;13.70;74.00;;;;;;4939338;29;20032;-88
2023/04/04 11:39:05;;;;;;;2.55;1.30;;;13.60;73.30;;;;;;4939336;29;20393;-88
2023/04/04 11:41:52;;;;;;;2.75;1.30;;;13.50;73.80;;;;;;4938765;29;20107;-88
2023/04/04 11:44:19;;;;;;;2.30;1.20;;;13.70;73.40;;;;;;4939426;29;20027;-88
2023/04/04 11:46:46;;;;;;;1.67;1.00;;;13.70;73.00;;;;;;4939088;29;20500;-88
2023/04/04 11:49:13;;;;;;;3.17;1.27;;;13.70;74.20;;;;;;4938474;29;20032;-85
2023/04/04 11:51:41;;;;;;;2.30;1.20;;;13.70;73.70;;;;;;4939753;29;20056;-88
2023/04/04 11:54:16;;;;;;;2.03;1.13;;;13.70;74.10;;;;;;4938189;29;20090;-89
2023/04/04 11:56:45;;;;;;;1.90;1.10;;;13.70;74.40;;;;;;4938578;29;20114;-88
2023/04/04 11:59:12;;;;;;;2.05;1.20;;;13.70;73.40;;;;;;4938610;29;20034;-87
2023/04/04 12:01:39;;;;;;;1.80;1.00;;;13.70;74.00;;;;;;4937580;29;20027;-88
2023/04/04 12:04:05;;;;;;;2.80;1.40;;;13.60;73.30;;;;;;4938159;29;20027;-88
2023/04/04 12:06:31;;;;;;;2.40;1.50;;;13.70;73.60;;;;;;4938420;29;20079;-86
2023/04/04 12:08:57;;;;;;;2.10;1.20;;;13.60;72.50;;;;;;4938315;29;20031;-88
2023/04/04 12:11:25;;;;;;;2.45;1.20;;;13.70;72.90;;;;;;4937737;29;20036;-88
2023/04/04 12:13:50;;;;;;;1.95;1.20;;;13.70;73.20;;;;;;4938568;29;20441;-88
2023/04/04 12:16:18;;;;;;;2.70;1.20;;;13.70;72.80;;;;;;4938011;29;20042;-88
2023/04/04 12:18:45;;;;;;;1.65;1.20;;;13.70;73.10;;;;;;4938027;29;20078;-89
2023/04/04 12:21:10;;;;;;;2.42;1.30;;;13.60;73.40;;;;;;4937279;29;20031;-88
2023/04/04 12:23:36;;;;;;;2.10;1.10;;;13.70;73.10;;;;;;4939450;29;20556;-87
2023/04/04 12:26:04;;;;;;;2.78;1.33;;;13.60;72.90;;;;;;4938318;29;20023;-88
2023/04/04 12:28:34;;;;;;;2.72;1.30;;;13.60;72.60;;;;;;4938046;29;20028;-88
2023/04/04 12:31:04;;;;;;;2.53;1.23;;;13.60;72.60;;;;;;4937581;29;20024;-88
2023/04/04 12:33:34;;;;;;;1.90;1.00;;;13.60;72.70;;;;;;4937310;29;20024;-88
2023/04/04 12:36:04;;;;;;;2.47;1.15;;;13.60;72.80;;;;;;4938038;29;20031;-88
2023/04/04 12:38:30;;;;;;;2.40;1.05;;;13.60;72.80;;;;;;4938115;29;20034;-88
2023/04/04 12:40:56;;;;;;;2.25;1.20;;;13.60;72.70;;;;;;4937722;29;20024;-88
2023/04/04 12:43:21;;;;;;;2.30;1.33;;;13.60;72.80;;;;;;4938122;29;20130;-88
2023/04/04 12:45:50;;;;;;;1.98;1.10;;;13.60;72.70;;;;;;4937743;29;20055;-88
2023/04/04 12:48:16;;;;;;;1.80;1.20;;;13.60;72.60;;;;;;4937757;29;20034;-88
2023/04/04 12:51:14;;;;;;;3.15;1.25;;;13.60;72.70;;;;;;4937733;29;20024;-88
2023/04/04 12:53:51;;;;;;;2.40;1.23;;;13.50;72.40;;;;;;4923583;29;20127;-88
2023/04/04 12:56:18;;;;;;;1.80;1.13;;;13.50;72.60;;;;;;4938453;29;20023;-88
2023/04/04 12:58:48;;;;;;;2.45;1.08;;;13.50;72.40;;;;;;4938449;29;20485;-88
2023/04/04 13:01:16;;;;;;;2.08;1.13;;;13.50;72.70;;;;;;4937386;29;20082;-87
2023/04/04 13:03:41;;;;;;;2.20;1.15;;;13.50;72.50;;;;;;4937805;29;20118;-88
2023/04/04 13:06:20;;;;;;;3.30;1.45;;;13.50;72.60;;;;;;4937242;29;20072;-88
2023/04/04 13:08:49;;;;;;;2.42;1.20;;;13.50;72.60;;;;;;4937793;29;20032;-88
2023/04/04 13:11:15;;;;;;;2.25;1.30;;;13.50;72.60;;;;;;4937522;29;20580;-90
2023/04/04 13:13:42;;;;;;;2.22;1.33;;;13.50;72.60;;;;;;4938117;29;20027;-89
2023/04/04 13:16:13;;;;;;;2.03;1.02;;;13.30;72.50;;;;;;4937605;29;20055;-88
2023/04/04 13:18:42;;;;;;;3.47;1.38;;;13.50;72.70;;;;;;4938107;29;20437;-88
2023/04/04 13:21:09;;;;;;;1.65;1.00;;;13.40;72.70;;;;;;4936862;29;20039;-88
2023/04/04 13:23:38;;;;;;;1.88;1.17;;;13.40;72.60;;;;;;4938048;29;20027;-88
2023/04/04 13:26:04;;;;;;;2.45;1.40;;;13.40;72.70;;;;;;4937783;29;20083;-88
2023/04/04 13:28:30;;;;;;;2.40;1.27;;;13.40;72.80;;;;;;4937395;29;20118;-88
2023/04/04 13:30:56;;;;;;;1.90;1.15;;;13.40;72.70;;;;;;4937241;29;20085;-88
2023/04/04 13:33:22;;;;;;;3.65;1.40;;;13.40;72.80;;;;;;4938051;29;20396;-87
2023/04/04 13:35:49;;;;;;;2.38;1.15;;;13.40;72.80;;;;;;4937439;29;20028;-88
2023/04/04 13:38:15;;;;;;;2.20;1.05;;;13.40;73.00;;;;;;4937744;29;20416;-88
2023/04/04 13:40:41;;;;;;;1.83;1.30;;;13.30;72.80;;;;;;4937505;29;20400;-88
2023/04/04 13:43:07;;;;;;;3.05;1.20;;;13.30;73.00;;;;;;4938106;29;20023;-88
2023/04/04 13:45:33;;;;;;;1.85;1.25;;;13.30;72.90;;;;;;4938462;29;20027;-88
2023/04/04 13:47:59;;;;;;;2.28;1.30;;;13.30;72.90;;;;;;4961143;23;20234;-83
2023/04/04 13:50:25;;;;;;;3.42;1.30;;;13.30;73.10;;;;;;4936887;29;20118;-83
2023/04/04 13:52:52;;;;;;;2.33;1.20;;;13.30;73.10;;;;;;4954579;29;20031;-83
2023/04/04 13:55:18;;;;;;;2.45;1.23;;;13.30;73.00;;;;;;4937143;29;20496;-84
2023/04/04 13:57:44;;;;;;;2.97;1.50;;;13.20;73.00;;;;;;4937246;29;20040;-85
2023/04/04 14:00:10;;;;;;;2.90;1.30;;;13.30;73.10;;;;;;4936878;29;20310;-82
2023/04/04 14:02:35;;;;;;;2.25;1.20;;;13.20;73.20;;;;;;4954400;29;20027;-84
2023/04/04 14:05:01;;;;;;;3.17;1.40;;;13.20;73.20;;;;;;4937242;29;20028;-83
2023/04/04 14:07:26;;;;;;;2.47;1.27;;;13.20;73.20;;;;;;4936945;29;20075;-84
2023/04/04 14:09:52;;;;;;;2.78;1.33;;;13.10;73.10;;;;;;4937165;29;20420;-84
2023/04/04 14:12:17;;;;;;;2.42;1.40;;;13.20;73.30;;;;;;4936725;29;20030;-84
2023/04/04 14:14:43;;;;;;;2.63;1.35;;;13.10;73.20;;;;;;4937263;29;20027;-85
2023/04/04 14:17:08;;;;;;;2.53;1.13;;;13.20;73.20;;;;;;4936821;29;20027;-84
2023/04/04 14:19:34;;;;;;;2.20;1.27;;;13.10;73.40;;;;;;4936846;29;20433;-84
2023/04/04 14:21:59;;;;;;;3.08;1.38;;;13.10;73.30;;;;;;4936796;29;20070;-84
2023/04/04 14:24:25;;;;;;;2.55;1.25;;;13.00;73.30;;;;;;4936983;29;20170;-84
2023/04/04 14:26:50;;;;;;;2.38;1.20;;;13.10;73.40;;;;;;4937036;29;20037;-83
2023/04/04 14:29:16;;;;;;;2.15;1.30;;;13.10;73.50;;;;;;4954139;29;20106;-83
2023/04/04 14:31:41;;;;;;;2.42;1.27;;;13.10;73.50;;;;;;4936744;29;20031;-83
2023/04/04 14:34:07;;;;;;;2.20;1.20;;;13.00;73.50;;;;;;4936920;29;20043;-84
2023/04/04 14:36:32;;;;;;;2.50;1.40;;;13.00;73.60;;;;;;4936781;29;20039;-83
2023/04/04 14:38:58;;;;;;;1.45;1.08;;;13.00;73.60;;;;;;4936998;29;20476;-84
2023/04/04 14:41:23;;;;;;;2.28;1.42;;;13.00;73.70;;;;;;4936533;29;20074;-84
2023/04/04 14:43:49;;;;;;;2.42;1.15;;;13.00;73.70;;;;;;4936889;29;20109;-84
2023/04/04 14:46:14;;;;;;;2.92;1.38;;;13.00;73.80;;;;;;4936326;29;20403;-83
2023/04/04 14:48:40;;;;;;;3.10;1.35;;;12.90;73.80;;;;;;4935959;29;20523;-84
2023/04/04 14:51:05;;;;;;;2.38;1.30;;;13.00;73.90;;;;;;4953040;29;20391;-83
2023/04/04 14:53:31;;;;;;;2.85;1.35;;;13.00;73.90;;;;;;4935898;29;20031;-82
2023/04/04 14:55:56;;;;;;;2.70;1.48;;;12.90;74.00;;;;;;4935961;29;20488;-83
2023/04/04 14:58:22;;;;;;;2.10;1.25;;;12.90;73.90;;;;;;4935831;29;20031;-83
2023/04/04 15:00:48;;;;;;;2.67;1.35;;;12.90;74.10;;;;;;4935303;29;20515;-84
2023/04/04 15:03:13;;;;;;;2.80;1.40;;;12.90;73.60;;;;;;4935736;29;20019;-84
2023/04/04 15:05:40;;;;;;;2.35;1.27;;;12.90;73.30;;;;;;4935731;29;20162;-80
2023/04/04 15:08:06;;;;;;;3.20;1.40;;;12.90;73.30;;;;;;4935929;29;20019;-84
2023/04/04 15:10:31;;;;;;;3.88;1.73;;;12.80;73.50;;;;;;4953446;29;20604;-82
2023/04/04 15:12:56;;;;;;;3.38;1.40;;;12.90;73.80;;;;;;4936403;29;20035;-85
2023/04/04 15:15:22;;;;;;;3.22;1.50;;;12.80;73.80;;;;;;4936002;29;20031;-85
2023/04/04 15:17:48;;;;;;;2.60;1.33;;;12.80;73.90;;;;;;4936121;29;20038;-85
2023/04/04 15:20:13;;;;;;;4.00;1.55;;;12.80;73.90;;;;;;4935802;29;20511;-84
2023/04/04 15:22:40;;;;;;;3.47;1.50;;;12.80;73.80;;;;;;4936039;29;20019;-84
2023/04/04 15:25:07;;;;;;;3.38;1.75;;;12.80;73.80;;;;;;4936573;29;20028;-84